createdAt,value
2018-04-27T00:02:14.008Z,99255.01
2018-04-27T00:04:40.396Z,99253.75
2018-04-27T00:07:06.812Z,99256.86
2018-04-27T00:09:33.246Z,99260.16
2018-04-27T00:11:59.638Z,99261.09
2018-04-27T00:14:26.077Z,99260.84
2018-04-27T00:16:52.547Z,99262.81
2018-04-27T00:19:18.964Z,99258.60
2018-04-27T00:21:45.388Z,99255.38
2018-04-27T00:24:11.913Z,99261.09
2018-04-27T00:26:38.330Z,99262.73
2018-04-27T00:29:04.720Z,99267.04
2018-04-27T00:31:31.053Z,99276.20
2018-04-27T00:33:57.510Z,99276.56
2018-04-27T00:36:23.980Z,99285.05
2018-04-27T00:38:50.336Z,99283.38
2018-04-27T00:41:16.732Z,99289.42
2018-04-27T00:43:43.129Z,99286.38
2018-04-27T00:46:09.513Z,99284.11
2018-04-27T00:48:35.922Z,99287.34
2018-04-27T00:51:02.328Z,99288.12
2018-04-27T00:53:28.702Z,99287.34
2018-04-27T00:55:55.140Z,99288.35
2018-04-27T00:58:21.507Z,99288.77
2018-04-27T01:00:47.888Z,99291.30
2018-04-27T01:03:14.316Z,99284.37
2018-04-27T01:05:40.772Z,99282.61
2018-04-27T01:08:07.210Z,99285.34
2018-04-27T01:10:33.795Z,99285.22
2018-04-27T01:13:00.210Z,99280.46
2018-04-27T01:15:26.621Z,99281.12
2018-04-27T01:17:53.059Z,99292.97
2018-04-27T01:20:19.432Z,99287.48
2018-04-27T01:22:45.840Z,99284.64
2018-04-27T01:25:12.240Z,99289.03
2018-04-27T01:27:38.629Z,99290.41
2018-04-27T01:30:05.041Z,99288.80
2018-04-27T01:32:31.618Z,99284.92
2018-04-27T01:34:58.148Z,99280.73
2018-04-27T01:37:24.617Z,99278.17
2018-04-27T01:39:51.026Z,99283.02
2018-04-27T01:42:17.360Z,99285.12
2018-04-27T01:44:43.748Z,99279.68
2018-04-27T01:47:11.886Z,99279.69
2018-04-27T01:49:38.477Z,99285.34
2018-04-27T01:52:05.060Z,99281.36
2018-04-27T01:54:31.424Z,99283.47
2018-04-27T01:56:57.848Z,99277.70
2018-04-27T01:59:24.195Z,99283.17
2018-04-27T02:01:50.590Z,99279.49
2018-04-27T02:04:17.008Z,99287.34
2018-04-27T02:06:43.390Z,99282.59
2018-04-27T02:09:09.787Z,99278.50
2018-04-27T02:11:36.220Z,99283.14
2018-04-27T02:14:02.618Z,99281.81
2018-04-27T02:16:29.046Z,99282.08
2018-04-27T02:18:55.530Z,99278.39
2018-04-27T02:21:21.956Z,99278.52
2018-04-27T02:23:48.309Z,99279.19
2018-04-27T02:26:14.721Z,99275.06
2018-04-27T02:28:41.102Z,99274.09
2018-04-27T02:31:07.501Z,99268.39
2018-04-27T02:33:33.926Z,99276.23
2018-04-27T02:36:00.351Z,99277.62
2018-04-27T02:38:26.754Z,99279.02
2018-04-27T02:40:53.126Z,99274.64
2018-04-27T02:43:19.600Z,99275.86
2018-04-27T02:45:46.010Z,99283.23
2018-04-27T02:48:12.390Z,99279.19
2018-04-27T02:50:38.992Z,99277.27
2018-04-27T02:53:05.494Z,99283.42
2018-04-27T02:55:31.878Z,99289.66
2018-04-27T02:57:58.249Z,99284.13
2018-04-27T03:00:24.618Z,99295.41
2018-04-27T03:02:51.003Z,99300.91
2018-04-27T03:05:17.558Z,99305.97
2018-04-27T03:07:43.910Z,99302.33
2018-04-27T03:10:10.330Z,99302.71
2018-04-27T03:12:36.753Z,99301.61
2018-04-27T03:15:03.181Z,99315.06
2018-04-27T03:17:29.532Z,99304.92
2018-04-27T03:19:56.015Z,99303.36
2018-04-27T03:22:22.419Z,99299.47
2018-04-27T03:24:48.814Z,99303.69
2018-04-27T03:27:15.282Z,99314.56
2018-04-27T03:29:41.701Z,99313.00
2018-04-27T03:32:08.074Z,99314.16
2018-04-27T03:34:34.448Z,99312.19
2018-04-27T03:37:00.808Z,99316.27
2018-04-27T03:39:27.251Z,99318.52
2018-04-27T03:41:53.627Z,99321.73
2018-04-27T03:44:20.002Z,99327.57
2018-04-27T03:46:46.514Z,99324.84
2018-04-27T03:49:12.925Z,99329.77
2018-04-27T03:51:39.415Z,99333.25
2018-04-27T03:54:05.791Z,99327.45
2018-04-27T03:57:07.285Z,99329.91
2018-04-27T03:59:45.965Z,99336.17
2018-04-27T04:02:24.728Z,99338.33
2018-04-27T04:05:03.362Z,99339.97
2018-04-27T04:07:29.787Z,99341.41
2018-04-27T04:09:56.227Z,99344.84
2018-04-27T04:12:22.634Z,99350.13
2018-04-27T04:14:49.074Z,99349.48
2018-04-27T04:17:15.520Z,99358.42
2018-04-27T04:19:41.891Z,99356.02
2018-04-27T04:22:08.415Z,99363.86
2018-04-27T04:24:34.744Z,99367.40
2018-04-27T04:27:01.121Z,99371.00
2018-04-27T04:29:27.802Z,99374.48
2018-04-27T04:31:54.211Z,99372.95
2018-04-27T04:34:20.651Z,99383.03
2018-04-27T04:36:47.136Z,99380.38
2018-04-27T04:39:14.074Z,99381.36
2018-04-27T04:41:40.674Z,99390.16
2018-04-27T04:44:07.286Z,99384.95
2018-04-27T04:46:33.733Z,99383.41
2018-04-27T04:49:00.137Z,99390.31
2018-04-27T04:51:26.585Z,99382.17
2018-04-27T04:53:53.032Z,99387.91
2018-04-27T04:56:19.417Z,99395.59
2018-04-27T04:58:45.863Z,99387.78
2018-04-27T05:01:12.331Z,99399.63
2018-04-27T05:03:39.027Z,99391.72
2018-04-27T05:06:05.851Z,99400.25
2018-04-27T05:08:32.669Z,99404.30
2018-04-27T05:10:59.145Z,99404.45
2018-04-27T05:13:25.575Z,99406.23
2018-04-27T05:15:52.008Z,99405.20
2018-04-27T05:18:26.658Z,99402.02
2018-04-27T05:20:53.061Z,99403.58
2018-04-27T05:23:19.434Z,99407.25
2018-04-27T05:25:45.936Z,99404.72
2018-04-27T05:28:12.426Z,99403.70
2018-04-27T05:30:38.804Z,99404.82
2018-04-27T05:33:05.316Z,99410.80
2018-04-27T05:35:31.769Z,99413.52
2018-04-27T05:37:58.178Z,99406.64
2018-04-27T05:40:24.969Z,99404.81
2018-04-27T05:42:51.434Z,99399.13
2018-04-27T05:45:17.954Z,99406.42
2018-04-27T05:47:44.488Z,99410.99
2018-04-27T05:50:11.122Z,99414.14
2018-04-27T05:52:37.510Z,99419.25
2018-04-27T05:55:03.986Z,99418.52
2018-04-27T05:57:30.503Z,99412.93
2018-04-27T05:59:57.008Z,99414.86
2018-04-27T06:02:23.542Z,99419.39
2018-04-27T06:04:51.081Z,99417.95
2018-04-27T06:07:17.569Z,99423.29
2018-04-27T06:09:44.225Z,99427.28
2018-04-27T06:12:10.680Z,99422.59
2018-04-27T06:14:37.141Z,99423.70
2018-04-27T06:17:03.678Z,99418.48
2018-04-27T06:19:30.043Z,99419.46
2018-04-27T06:21:56.502Z,99426.02
2018-04-27T06:24:23.207Z,99425.69
2018-04-27T06:26:49.642Z,99426.31
2018-04-27T06:29:16.155Z,99434.73
2018-04-27T06:31:42.594Z,99436.94
2018-04-27T06:34:09.093Z,99436.47
2018-04-27T06:36:35.482Z,99437.18
2018-04-27T06:39:01.987Z,99433.47
2018-04-27T06:41:28.499Z,99438.20
2018-04-27T06:43:55.034Z,99430.47
2018-04-27T06:46:21.538Z,99436.39
2018-04-27T06:48:47.978Z,99439.25
2018-04-27T06:51:14.379Z,99436.93
2018-04-27T06:53:40.826Z,99443.03
2018-04-27T06:56:07.359Z,99448.16
2018-04-27T06:58:33.841Z,99447.55
2018-04-27T07:01:00.382Z,99447.34
2018-04-27T07:03:26.943Z,99452.84
2018-04-27T07:05:53.473Z,99450.84
2018-04-27T07:08:20.029Z,99444.16
2018-04-27T07:10:46.554Z,99445.83
2018-04-27T07:13:12.994Z,99447.96
2018-04-27T07:15:39.728Z,99452.28
2018-04-27T07:18:06.257Z,99450.17
2018-04-27T07:20:32.648Z,99453.55
2018-04-27T07:22:59.082Z,99450.95
2018-04-27T07:25:25.591Z,99454.27
2018-04-27T07:27:52.319Z,99461.23
2018-04-27T07:30:18.791Z,99462.44
2018-04-27T07:32:45.340Z,99464.82
2018-04-27T07:35:11.760Z,99474.67
2018-04-27T07:37:38.250Z,99474.27
2018-04-27T07:40:04.798Z,99470.59
2018-04-27T07:42:31.280Z,99474.19
2018-04-27T07:44:57.870Z,99473.36
2018-04-27T07:47:24.542Z,99475.38
2018-04-27T07:49:51.031Z,99470.09
2018-04-27T07:52:17.533Z,99468.41
2018-04-27T07:54:44.052Z,99465.13
2018-04-27T07:57:10.512Z,99461.69
2018-04-27T07:59:37.125Z,99463.72
2018-04-27T08:02:03.609Z,99467.40
2018-04-27T08:04:30.120Z,99466.99
2018-04-27T08:06:56.702Z,99469.93
2018-04-27T08:09:23.196Z,99471.69
2018-04-27T08:11:49.665Z,99465.03
2018-04-27T08:14:16.273Z,99463.58
2018-04-27T08:16:42.838Z,99459.86
2018-04-27T08:19:09.358Z,99459.92
2018-04-27T08:21:35.849Z,99457.93
2018-04-27T08:24:02.727Z,99464.98
2018-04-27T08:26:29.486Z,99463.72
2018-04-27T08:28:57.258Z,99477.81
2018-04-27T08:31:24.025Z,99470.29
2018-04-27T08:33:50.674Z,99468.95
2018-04-27T08:36:17.462Z,99465.61
2018-04-27T08:38:44.080Z,99482.98
2018-04-27T08:41:10.675Z,99468.44
2018-04-27T08:43:37.237Z,99477.66
2018-04-27T08:46:03.829Z,99475.67
2018-04-27T08:48:30.351Z,99470.15
2018-04-27T08:50:57.040Z,99469.16
2018-04-27T08:53:24.534Z,99472.36
2018-04-27T08:55:51.132Z,99471.05
2018-04-27T08:58:17.865Z,99463.70
2018-04-27T09:00:44.709Z,99465.28
2018-04-27T09:03:11.413Z,99463.74
2018-04-27T09:05:38.192Z,99466.59
2018-04-27T09:08:04.678Z,99477.29
2018-04-27T09:10:31.398Z,99476.16
2018-04-27T09:12:58.026Z,99481.02
2018-04-27T09:15:24.569Z,99474.59
2018-04-27T09:17:51.122Z,99481.82
2018-04-27T09:20:17.737Z,99483.63
2018-04-27T09:22:44.338Z,99476.05
2018-04-27T09:25:10.941Z,99478.63
2018-04-27T09:27:37.494Z,99476.43
2018-04-27T09:30:04.293Z,99476.75
2018-04-27T09:32:30.806Z,99479.62
2018-04-27T09:34:57.286Z,99477.64
2018-04-27T09:37:23.898Z,99475.09
2018-04-27T09:39:50.372Z,99475.83
2018-04-27T09:42:17.267Z,99474.33
2018-04-27T09:44:44.100Z,99473.06
2018-04-27T09:47:10.801Z,99476.05
2018-04-27T09:49:37.355Z,99474.00
2018-04-27T09:52:03.885Z,99474.92
2018-04-27T09:54:30.349Z,99474.64
2018-04-27T09:56:56.839Z,99468.39
2018-04-27T09:59:23.447Z,99468.95
2018-04-27T10:01:49.945Z,99466.75
2018-04-27T10:04:16.489Z,99459.70
2018-04-27T10:06:43.099Z,99461.21
2018-04-27T10:09:09.618Z,99465.27
2018-04-27T10:11:36.149Z,99455.95
2018-04-27T10:14:02.614Z,99452.38
2018-04-27T10:16:29.304Z,99450.97
2018-04-27T10:18:56.102Z,99453.87
2018-04-27T10:21:22.593Z,99451.66
2018-04-27T10:23:49.055Z,99447.19
2018-04-27T10:26:20.624Z,99451.42
2018-04-27T10:28:47.068Z,99440.28
2018-04-27T10:31:13.514Z,99441.27
2018-04-27T10:33:40.114Z,99439.45
2018-04-27T10:36:06.468Z,99441.94
2018-04-27T10:38:32.937Z,99444.70
2018-04-27T10:40:59.559Z,99444.91
2018-04-27T10:43:26.014Z,99449.47
2018-04-27T10:45:52.472Z,99446.94
2018-04-27T10:48:19.054Z,99445.38
2018-04-27T10:50:45.554Z,99451.30
2018-04-27T10:53:12.016Z,99455.16
2018-04-27T10:55:38.758Z,99449.55
2018-04-27T10:58:05.230Z,99443.64
2018-04-27T11:00:31.798Z,99444.98
2018-04-27T11:02:58.336Z,99447.48
2018-04-27T11:05:24.864Z,99444.70
2018-04-27T11:07:51.486Z,99444.79
2018-04-27T11:10:17.971Z,99444.31
2018-04-27T11:12:44.510Z,99442.58
2018-04-27T11:15:11.148Z,99440.30
2018-04-27T11:17:37.819Z,99436.62
2018-04-27T11:20:04.283Z,99434.80
2018-04-27T11:22:30.862Z,99430.97
2018-04-27T11:24:57.354Z,99426.88
2018-04-27T11:27:23.785Z,99431.63
2018-04-27T11:29:50.462Z,99424.41
2018-04-27T11:32:17.002Z,99422.89
2018-04-27T11:34:43.556Z,99420.31
2018-04-27T11:37:10.145Z,99415.13
2018-04-27T11:39:36.583Z,99410.18
2018-04-27T11:42:03.150Z,99414.53
2018-04-27T11:44:29.629Z,99408.29
2018-04-27T11:46:56.024Z,99404.52
2018-04-27T11:49:22.528Z,99410.56
2018-04-27T11:51:49.167Z,99410.97
2018-04-27T11:54:15.686Z,99412.11
2018-04-27T11:56:42.204Z,99411.73
2018-04-27T11:59:08.862Z,99417.02
2018-04-27T12:01:35.418Z,99418.02
2018-04-27T12:04:02.021Z,99409.92
2018-04-27T12:06:28.587Z,99421.75
2018-04-27T12:08:55.347Z,99415.00
2018-04-27T12:11:22.116Z,99415.98
2018-04-27T12:13:49.139Z,99408.84
2018-04-27T12:16:15.771Z,99405.46
2018-04-27T12:18:42.416Z,99409.34
2018-04-27T12:21:08.907Z,99400.02
2018-04-27T12:23:35.309Z,99403.17
2018-04-27T12:26:02.012Z,99399.09
2018-04-27T12:28:28.814Z,99400.05
2018-04-27T12:30:55.215Z,99400.89
2018-04-27T12:33:21.799Z,99395.11
2018-04-27T12:35:48.214Z,99401.48
2018-04-27T12:38:14.728Z,99399.70
2018-04-27T12:40:41.217Z,99392.23
2018-04-27T12:43:07.867Z,99400.10
2018-04-27T12:45:34.513Z,99396.88
2018-04-27T12:48:01.050Z,99392.45
2018-04-27T12:50:27.687Z,99391.23
2018-04-27T12:52:54.145Z,99390.16
2018-04-27T12:55:20.701Z,99382.22
2018-04-27T12:57:47.269Z,99382.14
2018-04-27T13:00:14.084Z,99383.95
2018-04-27T13:02:40.522Z,99376.98
2018-04-27T13:05:07.029Z,99380.02
2018-04-27T13:07:33.512Z,99374.95
2018-04-27T13:09:59.982Z,99373.98
2018-04-27T13:12:26.716Z,99368.70
2018-04-27T13:14:53.252Z,99372.68
2018-04-27T13:17:19.692Z,99368.37
2018-04-27T13:19:46.250Z,99366.09
2018-04-27T13:22:12.707Z,99367.52
2018-04-27T13:24:39.281Z,99362.50
2018-04-27T13:27:05.829Z,99360.55
2018-04-27T13:29:32.235Z,99370.56
2018-04-27T13:31:58.750Z,99370.90
2018-04-27T13:34:25.299Z,99366.64
2018-04-27T13:36:51.946Z,99373.61
2018-04-27T13:39:18.405Z,99377.31
2018-04-27T13:41:44.964Z,99371.23
2018-04-27T13:44:11.720Z,99367.69
2018-04-27T13:46:38.153Z,99370.22
2018-04-27T13:49:04.634Z,99379.30
2018-04-27T13:51:31.215Z,99385.92
2018-04-27T13:53:57.927Z,99385.09
2018-04-27T13:56:24.504Z,99388.63
2018-04-27T13:58:51.078Z,99382.20
2018-04-27T14:01:17.646Z,99394.83
2018-04-27T14:03:44.200Z,99391.77
2018-04-27T14:06:10.713Z,99401.91
2018-04-27T14:08:37.256Z,99398.19
2018-04-27T14:11:03.895Z,99402.58
2018-04-27T14:13:30.352Z,99402.38
2018-04-27T14:15:56.770Z,99400.19
2018-04-27T14:19:15.402Z,99402.03
2018-04-27T14:21:41.920Z,99402.47
2018-04-27T14:24:08.511Z,99409.40
2018-04-27T14:26:34.952Z,99412.70
2018-04-27T14:29:01.362Z,99414.34
2018-04-27T14:31:27.749Z,99417.78
2018-04-27T14:33:54.313Z,99414.77
2018-04-27T14:36:20.983Z,99416.42
2018-04-27T14:38:47.536Z,99419.59
2018-04-27T14:41:14.040Z,99419.13
2018-04-27T14:43:40.637Z,99423.39
2018-04-27T14:46:07.117Z,99437.97
2018-04-27T14:48:33.791Z,99436.70
2018-04-27T14:51:00.345Z,99440.23
2018-04-27T14:53:26.914Z,99450.89
2018-04-27T14:55:53.364Z,99452.23
2018-04-27T14:58:20.018Z,99459.55
2018-04-27T15:00:46.447Z,99459.91
2018-04-27T15:03:13.002Z,99463.53
2018-04-27T15:05:39.433Z,99459.55
2018-04-27T15:08:05.884Z,99463.31
2018-04-27T15:10:32.466Z,99455.13
2018-04-27T15:12:58.984Z,99454.61
2018-04-27T15:15:25.462Z,99454.74
2018-04-27T15:17:51.911Z,99459.56
2018-04-27T15:20:18.368Z,99460.27
2018-04-27T15:22:44.825Z,99462.72
2018-04-27T15:25:11.262Z,99462.25
2018-04-27T15:27:37.743Z,99465.32
2018-04-27T15:30:04.251Z,99470.93
2018-04-27T15:32:30.812Z,99468.86
2018-04-27T15:34:57.233Z,99468.94
2018-04-27T15:37:23.655Z,99468.33
2018-04-27T15:39:50.179Z,99472.24
2018-04-27T15:42:16.710Z,99473.16
2018-04-27T15:44:43.177Z,99478.00
2018-04-27T15:47:09.696Z,99473.80
2018-04-27T15:49:36.259Z,99464.70
2018-04-27T15:52:02.884Z,99463.59
2018-04-27T15:54:29.276Z,99473.52
2018-04-27T15:56:55.725Z,99476.63
2018-04-27T15:59:22.350Z,99483.13
2018-04-27T16:01:48.835Z,99484.34
2018-04-27T16:04:15.654Z,99487.84
2018-04-27T16:06:42.202Z,99489.94
2018-04-27T16:09:08.744Z,99492.23
2018-04-27T16:11:35.263Z,99497.49
2018-04-27T16:14:01.891Z,99496.88
2018-04-27T16:16:28.456Z,99505.45
2018-04-27T16:19:33.407Z,99514.62
2018-04-27T16:21:59.841Z,99510.38
2018-04-27T16:24:26.411Z,99520.30
2018-04-27T16:26:52.955Z,99528.36
2018-04-27T16:29:19.440Z,99525.59
2018-04-27T16:31:45.875Z,99521.83
2018-04-27T16:34:12.401Z,99526.44
2018-04-27T16:36:38.900Z,99528.41
2018-04-27T16:39:05.358Z,99528.41
2018-04-27T16:41:31.972Z,99533.80
2018-04-27T16:43:58.388Z,99533.58
2018-04-27T16:46:24.766Z,99543.16
2018-04-27T16:48:51.307Z,99545.91
2018-04-27T16:51:17.828Z,99545.91
2018-04-27T16:53:44.446Z,99551.87
2018-04-27T16:56:10.913Z,99542.34
2018-04-27T16:58:37.471Z,99546.52
2018-04-27T17:01:03.936Z,99551.45
2018-04-27T17:03:30.380Z,99550.75
2018-04-27T17:05:56.923Z,99554.84
2018-04-27T17:08:23.444Z,99550.69
2018-04-27T17:10:49.937Z,99557.50
2018-04-27T17:13:16.357Z,99565.70
2018-04-27T17:15:42.857Z,99569.25
2018-04-27T17:18:10.883Z,99573.06
2018-04-27T17:20:54.112Z,99586.50
2018-04-27T17:23:20.903Z,99594.30
2018-04-27T17:25:47.409Z,99599.19
2018-04-27T17:28:13.973Z,99600.80
2018-04-27T17:30:40.463Z,99609.88
2018-04-27T17:33:06.913Z,99618.41
2018-04-27T17:35:33.374Z,99619.67
2018-04-27T17:37:59.870Z,99623.64
2018-04-27T17:40:26.442Z,99631.82
2018-04-27T17:42:52.859Z,99645.73
2018-04-27T17:45:19.273Z,99650.78
2018-04-27T17:47:45.755Z,99655.47
2018-04-27T17:50:12.228Z,99659.45
2018-04-27T17:52:38.693Z,99664.33
2018-04-27T17:55:05.119Z,99665.03
2018-04-27T17:57:31.699Z,99671.42
2018-04-27T17:59:58.101Z,99676.38
2018-04-27T18:02:24.601Z,99677.98
2018-04-27T18:04:51.191Z,99681.02
2018-04-27T18:07:17.639Z,99677.94
2018-04-27T18:09:44.130Z,99683.75
2018-04-27T18:12:10.582Z,99686.88
2018-04-27T18:14:37.033Z,99691.33
2018-04-27T18:17:03.516Z,99693.86
2018-04-27T18:19:30.025Z,99696.44
2018-04-27T18:21:56.639Z,99700.56
2018-04-27T18:24:23.130Z,99701.81
2018-04-27T18:26:49.601Z,99705.02
2018-04-27T18:29:16.059Z,99705.42
2018-04-27T18:31:42.494Z,99713.33
2018-04-27T18:34:08.980Z,99724.24
2018-04-27T18:36:35.388Z,99733.41
2018-04-27T18:39:01.913Z,99730.02
2018-04-27T18:41:28.474Z,99738.87
2018-04-27T18:43:54.879Z,99740.61
2018-04-27T18:46:21.333Z,99743.55
2018-04-27T18:48:47.902Z,99746.23
2018-04-27T18:51:16.493Z,99757.13
2018-04-27T18:53:42.970Z,99758.94
2018-04-27T18:56:10.401Z,99766.40
2018-04-27T18:58:36.866Z,99775.38
2018-04-27T19:01:03.392Z,99781.00
2018-04-27T19:03:29.867Z,99785.09
2018-04-27T19:05:56.372Z,99782.30
2018-04-27T19:08:22.906Z,99788.17
2018-04-27T19:10:49.480Z,99797.58
2018-04-27T19:13:17.941Z,99798.34
2018-04-27T19:15:44.461Z,99802.69
2018-04-27T19:18:14.865Z,99805.45
2018-04-27T19:20:41.267Z,99806.47
2018-04-27T19:23:09.330Z,99813.33
2018-04-27T19:25:43.924Z,99809.59
2018-04-27T19:28:10.474Z,99818.27
2018-04-27T19:30:36.952Z,99815.33
2018-04-27T19:33:03.390Z,99817.84
2018-04-27T19:35:29.838Z,99826.06
2018-04-27T19:37:56.270Z,99820.88
2018-04-27T19:40:22.826Z,99821.50
2018-04-27T19:42:49.348Z,99826.58
2018-04-27T19:45:15.865Z,99825.91
2018-04-27T19:47:42.312Z,99832.63
2018-04-27T19:50:08.796Z,99824.23
2018-04-27T19:52:35.215Z,99834.99
2018-04-27T19:55:01.659Z,99832.28
2018-04-27T19:57:28.178Z,99831.07
2018-04-27T19:59:54.797Z,99837.28
2018-04-27T20:02:21.373Z,99837.80
2018-04-27T20:04:47.935Z,99838.73
2018-04-27T20:07:14.482Z,99838.00
2018-04-27T20:09:41.061Z,99836.28
2018-04-27T20:12:07.525Z,99834.19
2018-04-27T20:14:35.929Z,99833.74
2018-04-27T20:17:03.312Z,99838.63
2018-04-27T20:19:29.704Z,99849.79
2018-04-27T20:21:56.259Z,99846.13
2018-04-27T20:24:22.861Z,99845.75
2018-04-27T20:26:49.279Z,99849.62
2018-04-27T20:29:16.727Z,99848.34
2018-04-27T20:31:43.386Z,99856.98
2018-04-27T20:34:10.076Z,99858.59
2018-04-27T20:36:36.572Z,99856.07
2018-04-27T20:39:03.074Z,99863.92
2018-04-27T20:41:29.549Z,99864.74
2018-04-27T20:43:56.060Z,99872.77
2018-04-27T20:46:22.635Z,99875.97
2018-04-27T20:48:49.114Z,99879.59
2018-04-27T20:51:16.876Z,99880.13
2018-04-27T20:53:54.170Z,99879.50
2018-04-27T20:56:21.832Z,99886.52
2018-04-27T20:58:48.376Z,99889.25
2018-04-27T21:01:14.902Z,99891.28
2018-04-27T21:03:41.464Z,99897.06
2018-04-27T21:06:08.133Z,99899.45
2018-04-27T21:08:34.856Z,99903.24
2018-04-27T21:11:01.309Z,99907.72
2018-04-27T21:13:27.881Z,99908.28
2018-04-27T21:15:54.466Z,99908.94
2018-04-27T21:18:21.198Z,99918.61
2018-04-27T21:20:47.683Z,99910.96
2018-04-27T21:23:14.188Z,99912.56
2018-04-27T21:25:41.749Z,99912.20
2018-04-27T21:28:09.387Z,99913.22
2018-04-27T21:30:35.866Z,99914.30
2018-04-27T21:33:03.167Z,99909.70
2018-04-27T21:35:29.686Z,99910.42
2018-04-27T21:37:56.168Z,99920.14
2018-04-27T21:40:22.706Z,99929.27
2018-04-27T21:42:49.204Z,99933.19
2018-04-27T21:45:15.739Z,99926.69
2018-04-27T21:47:44.229Z,99928.52
2018-04-27T21:50:10.753Z,99925.14
2018-04-27T21:52:49.227Z,99932.67
2018-04-27T21:55:15.704Z,99936.39
2018-04-27T21:57:44.977Z,99936.41
2018-04-27T22:00:14.243Z,99937.34
2018-04-27T22:16:00.176Z,99937.16
2018-04-27T22:18:26.760Z,99938.90
2018-04-27T22:20:53.389Z,99935.17
2018-04-27T22:36:38.714Z,99940.81
2018-04-27T22:39:16.633Z,99940.11
2018-04-27T22:41:43.110Z,99941.51
2018-04-27T22:44:12.658Z,99942.63
2018-04-27T22:46:40.194Z,99945.34
2018-04-27T22:49:07.583Z,99942.33
2018-04-27T22:51:40.064Z,99943.45
2018-04-27T22:54:07.498Z,99946.63
2018-04-27T22:56:47.774Z,99942.39
2018-04-27T22:59:14.333Z,99941.41
2018-04-27T23:01:40.834Z,99946.78
2018-04-27T23:04:07.368Z,99947.16
2018-04-27T23:06:33.902Z,99939.05
2018-04-27T23:09:00.397Z,99937.71
2018-04-27T23:11:26.877Z,99939.50
2018-04-27T23:27:10.937Z,99940.45
2018-04-27T23:29:37.416Z,99940.58
2018-04-27T23:32:03.919Z,99943.41
2018-04-27T23:34:30.407Z,99943.81
2018-04-27T23:36:56.909Z,99941.69
2018-04-27T23:39:23.413Z,99942.78
2018-04-27T23:41:49.900Z,99945.04
2018-04-27T23:44:16.440Z,99948.20
2018-04-27T23:46:42.913Z,99947.70
2018-04-27T23:49:09.391Z,99950.23
2018-04-27T23:51:35.894Z,99944.97
2018-04-27T23:54:07.270Z,99949.57
2018-04-27T23:56:42.944Z,99946.77
2018-04-27T23:59:09.430Z,99948.18
